Time;durP1;ratioP1;P1;durP2;ratioP2;P2;SDS_P1;SDS_P2;PMS_P1;PMS_P2;Temp;Humidity;BMP_temperature;BMP_pressure;BME280_temperature;BME280_humidity;BME280_pressure;Samples;Min_cycle;Max_cycle;Signal;HPM_P1;HPM_P2
2022/04/30 00:00:57;;;;;;;6.33;4.50;;;12.90;99.90;;;;;;5052828;28;20291;-55
2022/04/30 00:03:26;;;;;;;5.30;4.80;;;12.90;99.90;;;;;;5052596;28;20701;-54
2022/04/30 00:05:53;;;;;;;7.17;4.87;;;13.00;99.90;;;;;;5052655;28;20325;-54
2022/04/30 00:08:19;;;;;;;6.30;5.00;;;13.00;99.90;;;;;;5052842;28;20263;-54
2022/04/30 00:10:46;;;;;;;6.43;5.60;;;13.00;99.90;;;;;;5052634;28;20275;-54
2022/04/30 00:13:14;;;;;;;7.47;5.80;;;13.10;99.90;;;;;;5052508;28;20270;-55
2022/04/30 00:15:41;;;;;;;6.23;5.30;;;13.20;99.90;;;;;;5052619;28;20605;-54
2022/04/30 00:18:08;;;;;;;6.93;5.07;;;13.10;99.90;;;;;;5052586;28;20202;-55
2022/04/30 00:20:36;;;;;;;4.83;4.43;;;13.20;99.90;;;;;;5052294;28;20296;-55
2022/04/30 00:23:03;;;;;;;7.37;4.73;;;13.20;99.90;;;;;;5052652;28;20230;-54
2022/04/30 00:25:29;;;;;;;5.50;4.80;;;13.30;99.90;;;;;;5052707;28;20229;-55
2022/04/30 00:27:56;;;;;;;6.73;5.57;;;13.30;99.90;;;;;;5052469;28;20205;-56
2022/04/30 00:30:24;;;;;;;5.17;4.67;;;13.30;99.90;;;;;;5052191;28;20216;-54
2022/04/30 00:32:51;;;;;;;7.73;5.10;;;13.30;99.90;;;;;;5052355;28;20202;-56
2022/04/30 00:35:17;;;;;;;6.63;5.00;;;13.30;99.90;;;;;;5051994;28;20237;-56
2022/04/30 00:37:44;;;;;;;7.80;4.93;;;13.30;99.90;;;;;;5052411;28;20549;-54
2022/04/30 00:40:12;;;;;;;6.27;5.03;;;13.30;99.90;;;;;;5052027;28;20205;-54
2022/04/30 00:42:39;;;;;;;5.40;4.70;;;13.30;99.90;;;;;;5052166;28;20663;-54
2022/04/30 00:45:06;;;;;;;6.17;4.50;;;13.20;99.90;;;;;;5052322;28;20296;-54
2022/04/30 00:47:34;;;;;;;9.23;5.50;;;13.20;99.90;;;;;;5052025;28;20271;-54
2022/04/30 00:50:00;;;;;;;6.40;5.37;;;13.20;99.90;;;;;;5052064;28;20205;-54
2022/04/30 00:52:27;;;;;;;5.80;5.20;;;13.20;99.90;;;;;;5051977;28;20669;-54
2022/04/30 00:55:01;;;;;;;8.77;5.63;;;13.10;99.90;;;;;;5051935;28;20589;-55
2022/04/30 00:57:32;;;;;;;6.03;5.43;;;13.10;99.90;;;;;;5051903;28;20244;-54
2022/04/30 01:00:01;;;;;;;6.73;5.90;;;13.20;99.90;;;;;;5051786;28;20305;-54
2022/04/30 01:02:29;;;;;;;7.33;6.07;;;13.20;99.90;;;;;;5051775;28;20217;-54
2022/04/30 01:04:57;;;;;;;9.27;6.80;;;13.30;99.90;;;;;;5052182;28;20237;-55
2022/04/30 01:07:24;;;;;;;7.83;6.47;;;13.30;99.90;;;;;;5051752;28;20340;-53
2022/04/30 01:09:54;;;;;;;8.30;6.87;;;13.30;99.90;;;;;;5051983;28;20216;-54
2022/04/30 01:12:22;;;;;;;10.30;7.03;;;13.30;99.90;;;;;;5051587;28;20293;-55
2022/04/30 01:14:51;;;;;;;10.93;7.33;;;13.30;99.90;;;;;;5051855;28;20468;-54
2022/04/30 01:17:17;;;;;;;10.73;7.50;;;13.30;99.90;;;;;;5051676;28;20222;-55
2022/04/30 01:19:45;;;;;;;7.97;7.17;;;13.30;99.90;;;;;;5051772;28;20205;-54
2022/04/30 01:22:20;;;;;;;8.17;7.27;;;13.30;99.90;;;;;;5051579;28;20279;-53
2022/04/30 01:24:50;;;;;;;8.53;6.90;;;13.30;99.90;;;;;;5051578;28;20734;-56
2022/04/30 01:27:17;;;;;;;7.47;6.67;;;13.40;99.90;;;;;;5051360;28;20619;-55
2022/04/30 01:29:44;;;;;;;7.80;7.10;;;13.30;99.90;;;;;;5051608;28;20206;-54
2022/04/30 01:37:39;;;;;;;10.90;7.77;;;13.40;99.90;;;;;;5051394;28;20221;-55
2022/04/30 01:40:09;;;;;;;7.47;6.67;;;13.40;99.90;;;;;;5051492;28;20263;-55
2022/04/30 01:42:39;;;;;;;8.07;7.27;;;13.40;99.90;;;;;;5051630;28;20279;-55
2022/04/30 01:45:07;;;;;;;8.10;7.30;;;13.50;99.90;;;;;;5051695;28;20205;-56
2022/04/30 01:47:36;;;;;;;8.83;7.60;;;13.50;99.90;;;;;;5051412;28;20245;-56
2022/04/30 01:50:03;;;;;;;9.20;7.83;;;13.50;99.90;;;;;;5051109;28;20636;-55
2022/04/30 01:52:30;;;;;;;9.47;8.03;;;13.50;99.90;;;;;;5051580;28;20723;-55
2022/04/30 01:54:56;;;;;;;9.00;6.93;;;13.50;99.90;;;;;;5051529;28;20209;-55
2022/04/30 01:57:26;;;;;;;8.60;7.70;;;13.50;99.90;;;;;;5051688;28;20237;-58
2022/04/30 01:59:53;;;;;;;8.07;7.27;;;13.60;99.90;;;;;;5051704;28;20209;-58
2022/04/30 02:02:22;;;;;;;9.63;7.03;;;13.60;99.90;;;;;;5055043;28;20261;-58
2022/04/30 02:04:50;;;;;;;9.07;8.20;;;13.60;99.90;;;;;;5055009;28;20232;-57
2022/04/30 02:07:17;;;;;;;9.50;7.53;;;13.60;99.90;;;;;;5055222;28;20308;-58
2022/04/30 02:09:44;;;;;;;8.20;7.40;;;13.60;99.90;;;;;;5054855;28;20560;-57
2022/04/30 02:12:11;;;;;;;10.47;7.97;;;13.60;99.90;;;;;;5054846;28;20653;-58
2022/04/30 02:14:42;;;;;;;8.93;7.37;;;13.60;99.90;;;;;;5054922;28;20719;-58
2022/04/30 02:17:10;;;;;;;10.30;8.13;;;13.60;99.90;;;;;;5054743;28;20253;-58
2022/04/30 02:22:26;;;;;;;8.60;7.73;;;13.60;99.90;;;;;;5054734;28;20706;-57
2022/04/30 02:24:54;;;;;;;9.93;7.50;;;13.60;99.90;;;;;;5054587;28;20670;-58
2022/04/30 02:27:22;;;;;;;11.07;7.93;;;13.60;99.90;;;;;;5054795;28;20295;-58
2022/04/30 02:29:51;;;;;;;8.97;8.03;;;13.60;99.90;;;;;;5054480;28;20900;-58
2022/04/30 02:32:17;;;;;;;11.37;8.57;;;13.60;99.90;;;;;;5054718;28;20558;-58
2022/04/30 02:34:44;;;;;;;9.47;8.20;;;13.60;99.90;;;;;;5054649;28;20656;-58
2022/04/30 02:37:14;;;;;;;8.97;8.03;;;13.50;99.90;;;;;;5054478;28;20229;-58
2022/04/30 02:39:42;;;;;;;8.77;7.77;;;13.50;99.90;;;;;;5054287;28;20202;-57
2022/04/30 02:42:10;;;;;;;9.40;8.50;;;13.50;99.90;;;;;;5054141;28;20214;-58
2022/04/30 02:44:37;;;;;;;10.03;8.80;;;13.50;99.90;;;;;;5054345;28;20739;-58
2022/04/30 02:47:07;;;;;;;11.13;8.27;;;13.50;99.90;;;;;;5054261;28;20230;-58
2022/04/30 02:49:34;;;;;;;10.77;7.97;;;13.40;99.90;;;;;;5054155;28;20263;-58
2022/04/30 02:52:01;;;;;;;10.67;8.60;;;13.40;99.90;;;;;;5054303;28;20236;-57
2022/04/30 02:54:29;;;;;;;9.57;8.57;;;13.40;99.90;;;;;;5054482;28;20296;-57
2022/04/30 02:56:55;;;;;;;10.17;8.17;;;13.40;99.90;;;;;;5054260;28;20237;-58
2022/04/30 03:02:07;;;;;;;8.50;7.70;;;13.40;99.90;;;;;;5054497;28;20677;-57
2022/04/30 03:04:34;;;;;;;9.50;8.50;;;13.40;99.90;;;;;;5054024;28;20641;-57
2022/04/30 03:07:01;;;;;;;11.30;8.67;;;13.30;99.90;;;;;;5054128;28;20225;-57
2022/04/30 03:09:28;;;;;;;10.80;8.43;;;13.30;99.90;;;;;;5053902;28;20206;-57
2022/04/30 03:11:55;;;;;;;9.37;8.37;;;13.30;99.90;;;;;;5053807;28;20228;-56
2022/04/30 03:14:21;;;;;;;13.70;8.73;;;13.30;99.90;;;;;;5053887;28;20624;-55
2022/04/30 03:22:18;;;;;;;12.53;9.37;;;13.20;99.90;;;;;;5053952;28;20208;-56
2022/04/30 03:24:44;;;;;;;11.63;9.43;;;13.10;99.90;;;;;;5053908;28;20301;-58
2022/04/30 03:27:12;;;;;;;12.53;9.63;;;13.10;99.90;;;;;;5053539;28;20225;-56
2022/04/30 03:29:39;;;;;;;14.03;10.53;;;13.00;99.90;;;;;;5053335;28;20205;-58
2022/04/30 03:32:06;;;;;;;15.70;10.43;;;13.00;99.90;;;;;;5053403;28;20221;-56
2022/04/30 03:34:34;;;;;;;11.87;10.40;;;12.90;99.90;;;;;;5053354;28;20209;-56
2022/04/30 03:37:01;;;;;;;13.23;10.67;;;12.90;99.90;;;;;;5053397;28;20234;-56
2022/04/30 03:39:28;;;;;;;12.93;10.10;;;12.90;99.90;;;;;;5053439;28;20209;-59
2022/04/30 03:41:55;;;;;;;14.63;11.13;;;12.80;99.90;;;;;;5053049;28;20216;-56
2022/04/30 03:44:22;;;;;;;15.37;10.97;;;12.80;99.90;;;;;;5053095;28;20221;-56
2022/04/30 03:46:49;;;;;;;13.87;10.47;;;12.80;99.90;;;;;;5052921;28;20233;-58
2022/04/30 03:49:16;;;;;;;13.50;10.90;;;12.80;99.90;;;;;;5053364;28;20209;-56
2022/04/30 03:51:44;;;;;;;22.07;14.90;;;12.80;99.90;;;;;;5053237;28;20209;-56
2022/04/30 03:54:11;;;;;;;16.93;11.87;;;12.80;99.90;;;;;;5053213;28;20202;-56
2022/04/30 03:56:38;;;;;;;15.80;11.53;;;12.80;99.90;;;;;;5052960;28;20592;-59
2022/04/30 03:59:05;;;;;;;16.40;11.17;;;12.80;99.90;;;;;;5053062;28;20296;-57
2022/04/30 04:01:32;;;;;;;15.17;12.63;;;12.80;99.90;;;;;;5052455;28;20738;-56
2022/04/30 04:04:00;;;;;;;14.80;11.77;;;12.80;99.90;;;;;;5052744;28;20309;-56
2022/04/30 04:06:27;;;;;;;12.90;11.07;;;12.80;99.90;;;;;;5052814;28;20221;-56
2022/04/30 04:08:57;;;;;;;14.33;11.37;;;12.80;99.90;;;;;;5052828;28;20202;-56
2022/04/30 04:11:24;;;;;;;17.10;12.33;;;12.80;99.90;;;;;;5052460;28;20205;-56
2022/04/30 04:19:22;;;;;;;15.27;13.67;;;12.80;99.90;;;;;;5052871;28;20220;-57
2022/04/30 04:21:48;;;;;;;17.77;13.73;;;12.90;99.90;;;;;;5052312;28;20309;-57
2022/04/30 04:27:01;;;;;;;22.83;15.57;;;12.90;99.90;;;;;;5052427;28;20226;-55
2022/04/30 04:29:28;;;;;;;23.50;15.43;;;12.90;99.90;;;;;;5052552;28;20205;-56
2022/04/30 04:31:54;;;;;;;21.77;15.93;;;12.90;99.90;;;;;;5052122;28;20644;-56
2022/04/30 04:34:21;;;;;;;20.23;15.60;;;12.90;99.90;;;;;;5052313;28;20210;-56
2022/04/30 04:36:48;;;;;;;24.50;15.37;;;13.00;99.90;;;;;;5052089;28;20225;-57
2022/04/30 04:39:16;;;;;;;23.57;15.93;;;13.10;99.90;;;;;;5052467;28;20282;-56
2022/04/30 04:41:43;;;;;;;23.73;16.93;;;13.20;99.90;;;;;;5052014;28;20236;-56
2022/04/30 04:44:10;;;;;;;25.10;16.07;;;13.20;99.90;;;;;;5051979;28;20715;-56
2022/04/30 04:46:39;;;;;;;20.77;16.17;;;13.20;99.90;;;;;;5052010;28;20279;-57
2022/04/30 04:49:06;;;;;;;23.17;15.77;;;13.30;99.90;;;;;;5051610;28;20251;-61
2022/04/30 04:51:34;;;;;;;24.10;17.37;;;13.30;99.90;;;;;;5029689;28;20297;-64
2022/04/30 04:54:01;;;;;;;22.93;16.63;;;13.40;99.90;;;;;;5032134;28;20213;-66
2022/04/30 04:56:29;;;;;;;20.00;16.47;;;13.40;99.90;;;;;;5045132;28;20269;-65
2022/04/30 04:58:56;;;;;;;24.77;18.20;;;13.40;99.90;;;;;;5052207;28;20205;-64
2022/04/30 05:01:23;;;;;;;22.70;16.47;;;13.50;99.90;;;;;;5051372;28;20209;-59
2022/04/30 05:03:49;;;;;;;29.97;17.37;;;13.60;99.90;;;;;;5051557;28;20229;-59
2022/04/30 05:06:16;;;;;;;23.37;17.17;;;13.60;99.90;;;;;;5051539;28;20725;-62
2022/04/30 05:08:43;;;;;;;22.57;16.47;;;13.60;99.90;;;;;;5051500;28;20283;-59
2022/04/30 05:11:10;;;;;;;23.43;17.30;;;13.70;99.90;;;;;;5051402;28;20201;-61
2022/04/30 05:13:38;;;;;;;22.70;15.80;;;13.60;99.90;;;;;;5052107;28;20210;-60
2022/04/30 05:16:05;;;;;;;23.33;16.53;;;13.60;99.90;;;;;;5051727;28;20226;-64
2022/04/30 05:18:32;;;;;;;22.83;17.20;;;13.70;99.90;;;;;;5051598;28;20212;-56
2022/04/30 05:20:59;;;;;;;26.07;15.87;;;13.70;99.90;;;;;;5051567;28;20263;-56
2022/04/30 05:23:25;;;;;;;23.07;16.20;;;13.80;99.90;;;;;;5051617;28;20225;-56
2022/04/30 05:25:53;;;;;;;20.60;16.70;;;13.80;99.90;;;;;;5051735;28;20275;-57
2022/04/30 05:28:20;;;;;;;23.17;16.93;;;13.90;99.90;;;;;;5051656;28;20205;-57
2022/04/30 05:30:48;;;;;;;24.93;17.83;;;14.00;99.90;;;;;;5051316;28;20251;-56
2022/04/30 05:33:14;;;;;;;24.27;17.30;;;14.00;99.90;;;;;;5051395;28;20217;-58
2022/04/30 05:35:41;;;;;;;23.60;17.00;;;14.10;99.90;;;;;;5053464;28;20229;-56
2022/04/30 05:38:08;;;;;;;25.20;17.23;;;14.20;99.90;;;;;;5055707;28;20225;-56
2022/04/30 05:40:34;;;;;;;23.97;17.90;;;14.20;99.90;;;;;;5055486;28;20202;-58
2022/04/30 05:43:01;;;;;;;29.00;20.93;;;14.30;99.90;;;;;;5055361;28;20278;-58
2022/04/30 05:45:28;;;;;;;28.83;18.50;;;14.30;99.90;;;;;;5055243;28;20263;-57
2022/04/30 05:47:56;;;;;;;24.90;17.23;;;14.40;99.90;;;;;;5055576;28;20217;-57
2022/04/30 05:50:23;;;;;;;24.70;17.60;;;14.40;99.90;;;;;;5055395;28;20576;-57
2022/04/30 05:52:49;;;;;;;24.17;16.93;;;14.50;99.90;;;;;;5055509;28;20342;-57
2022/04/30 05:55:16;;;;;;;24.37;18.70;;;14.60;99.90;;;;;;5055553;28;20279;-56
2022/04/30 05:57:44;;;;;;;22.23;17.67;;;14.70;99.90;;;;;;5055111;28;20719;-57
2022/04/30 06:00:11;;;;;;;25.27;17.97;;;14.80;99.90;;;;;;5054881;28;20205;-58
2022/04/30 06:02:38;;;;;;;22.87;17.00;;;14.80;99.90;;;;;;5055703;28;20206;-57
2022/04/30 06:05:08;;;;;;;22.70;17.73;;;14.80;99.90;;;;;;5056088;28;20233;-57
2022/04/30 06:07:34;;;;;;;24.83;16.90;;;14.90;99.90;;;;;;5055913;28;20651;-56
2022/04/30 06:10:01;;;;;;;23.33;17.47;;;15.10;99.90;;;;;;5055306;28;20251;-56
2022/04/30 06:12:29;;;;;;;21.87;16.53;;;15.20;99.90;;;;;;5055501;28;20206;-56
2022/04/30 06:14:56;;;;;;;21.47;16.70;;;15.30;99.90;;;;;;5055008;28;20875;-57
2022/04/30 06:17:22;;;;;;;20.93;15.53;;;15.40;99.90;;;;;;5055173;28;20233;-57
2022/04/30 06:19:49;;;;;;;20.50;16.33;;;15.50;99.90;;;;;;5055443;28;20205;-57
2022/04/30 06:22:17;;;;;;;22.13;16.33;;;15.60;99.90;;;;;;5055154;28;20210;-57
2022/04/30 06:24:44;;;;;;;19.67;15.70;;;15.70;99.90;;;;;;5054753;28;20218;-57
2022/04/30 06:27:11;;;;;;;22.00;16.53;;;15.80;99.90;;;;;;5054495;28;20229;-56
2022/04/30 06:29:39;;;;;;;22.67;16.63;;;15.90;99.90;;;;;;5055136;28;20213;-56
2022/04/30 06:32:06;;;;;;;22.37;16.77;;;15.90;99.90;;;;;;5054513;28;20301;-57
2022/04/30 06:34:33;;;;;;;19.40;15.20;;;16.00;99.90;;;;;;5055091;28;20596;-56
2022/04/30 06:36:59;;;;;;;20.83;16.00;;;16.10;99.90;;;;;;5054299;28;20589;-57
2022/04/30 06:39:27;;;;;;;20.90;16.33;;;16.30;99.90;;;;;;5054301;28;20603;-57
2022/04/30 06:41:54;;;;;;;19.90;16.17;;;16.60;99.90;;;;;;5053976;28;20681;-57
2022/04/30 06:44:21;;;;;;;20.43;16.13;;;16.80;99.90;;;;;;5054472;28;20229;-57
2022/04/30 06:46:47;;;;;;;19.17;15.43;;;17.00;99.90;;;;;;5053769;28;20229;-57
2022/04/30 06:49:14;;;;;;;20.13;15.10;;;17.20;99.90;;;;;;5054329;28;20205;-57
2022/04/30 06:51:40;;;;;;;20.60;14.93;;;17.40;99.90;;;;;;5054500;28;20206;-57
2022/04/30 06:57:10;;;;;;;18.45;14.57;;;18.00;99.90;;;;;;5054617;28;20236;-57
2022/04/30 06:59:40;;;;;;;20.40;15.33;;;18.00;99.90;;;;;;5054973;28;20209;-58
2022/04/30 07:02:07;;;;;;;21.07;15.73;;;17.90;99.90;;;;;;5054581;28;20202;-59
2022/04/30 07:04:34;;;;;;;17.83;14.33;;;17.70;99.90;;;;;;5054514;28;20257;-57
2022/04/30 07:07:01;;;;;;;21.27;16.53;;;17.50;99.90;;;;;;5054317;28;20314;-57
2022/04/30 07:09:32;;;;;;;18.20;15.17;;;17.30;99.90;;;;;;5054077;28;20205;-57
2022/04/30 07:12:00;;;;;;;19.70;15.60;;;17.30;99.90;;;;;;5053673;28;20627;-57
2022/04/30 07:14:27;;;;;;;22.40;15.90;;;17.20;99.90;;;;;;5055455;28;20205;-57
2022/04/30 07:16:54;;;;;;;19.93;15.37;;;17.30;99.90;;;;;;5054687;28;20222;-56
2022/04/30 07:19:20;;;;;;;17.47;14.87;;;17.20;99.90;;;;;;5053636;28;20255;-59
2022/04/30 07:21:47;;;;;;;21.60;15.93;;;17.00;99.90;;;;;;5053233;28;20619;-56
2022/04/30 07:24:14;;;;;;;17.10;14.30;;;17.00;99.90;;;;;;5053575;28;20299;-58
2022/04/30 07:26:40;;;;;;;20.02;15.10;;;17.00;99.90;;;;;;5040233;28;20313;-59
2022/04/30 07:29:08;;;;;;;18.87;15.33;;;17.10;99.90;;;;;;5033769;28;20215;-63
2022/04/30 07:31:36;;;;;;;22.00;15.53;;;17.10;99.90;;;;;;5032930;28;20217;-62
2022/04/30 07:34:04;;;;;;;15.55;13.88;;;17.00;99.90;;;;;;5033368;28;20237;-62
2022/04/30 07:36:31;;;;;;;16.10;14.40;;;17.00;99.90;;;;;;5033261;28;20226;-62
2022/04/30 07:38:58;;;;;;;20.07;15.07;;;17.00;99.90;;;;;;5033387;28;20299;-63
2022/04/30 07:41:25;;;;;;;17.83;13.93;;;17.00;99.90;;;;;;5032839;28;20217;-58
2022/04/30 07:43:52;;;;;;;25.03;17.83;;;17.10;99.90;;;;;;5032812;28;20256;-58
2022/04/30 07:46:22;;;;;;;18.17;15.20;;;17.20;99.90;;;;;;5032948;28;20242;-58
2022/04/30 07:48:48;;;;;;;17.77;14.77;;;17.30;99.90;;;;;;5032943;28;20210;-60
2022/04/30 07:51:18;;;;;;;16.07;13.70;;;17.40;99.90;;;;;;5032877;28;20292;-61
2022/04/30 07:53:45;;;;;;;18.73;14.40;;;17.50;99.90;;;;;;5033128;28;20210;-60
2022/04/30 07:56:12;;;;;;;17.43;13.97;;;17.60;99.90;;;;;;5059319;22;20261;-58
2022/04/30 07:58:39;;;;;;;17.13;13.48;;;17.70;99.90;;;;;;5052287;28;20202;-58
2022/04/30 08:01:06;;;;;;;16.77;13.80;;;17.80;99.90;;;;;;5052382;28;20669;-59
2022/04/30 08:03:34;;;;;;;16.93;13.50;;;17.80;99.90;;;;;;5052791;28;20624;-60
2022/04/30 08:06:01;;;;;;;15.87;13.63;;;17.80;99.90;;;;;;5052558;28;20221;-59
2022/04/30 08:08:28;;;;;;;16.67;12.70;;;17.90;99.90;;;;;;5052516;28;20422;-60
2022/04/30 08:10:54;;;;;;;16.90;13.63;;;17.90;99.90;;;;;;5052552;28;20217;-60
2022/04/30 08:13:21;;;;;;;14.80;13.23;;;18.00;99.90;;;;;;5052584;28;20251;-57
2022/04/30 08:15:48;;;;;;;44.07;39.23;;;18.00;99.90;;;;;;5052646;28;20246;-57
2022/04/30 08:18:15;;;;;;;14.57;11.73;;;18.00;99.90;;;;;;5052742;28;20225;-61
2022/04/30 08:20:43;;;;;;;17.63;12.43;;;17.90;99.90;;;;;;5052261;28;20207;-56
2022/04/30 08:23:10;;;;;;;14.00;12.02;;;17.80;99.90;;;;;;5052592;28;20201;-57
2022/04/30 08:25:38;;;;;;;15.48;11.98;;;17.90;99.90;;;;;;5053333;28;20584;-60
2022/04/30 08:28:06;;;;;;;14.38;11.38;;;18.10;99.90;;;;;;5053253;28;20226;-59
2022/04/30 08:30:33;;;;;;;17.70;12.63;;;18.30;99.90;;;;;;5053628;28;20205;-60
2022/04/30 08:33:00;;;;;;;15.98;11.75;;;18.40;99.90;;;;;;5052343;28;20206;-60
2022/04/30 08:35:27;;;;;;;12.98;11.40;;;18.60;99.90;;;;;;5053017;28;20208;-61
2022/04/30 08:37:55;;;;;;;14.70;11.65;;;18.70;99.90;;;;;;5052210;28;20225;-60
2022/04/30 08:40:22;;;;;;;14.98;12.13;;;18.80;99.90;;;;;;5051955;28;20208;-60
2022/04/30 08:42:49;;;;;;;17.60;11.95;;;18.60;99.90;;;;;;5052445;28;20217;-60
2022/04/30 08:45:15;;;;;;;14.80;11.98;;;18.40;99.90;;;;;;5052015;28;20248;-60
2022/04/30 08:47:45;;;;;;;14.80;11.55;;;18.40;99.90;;;;;;5052224;28;20252;-59
2022/04/30 08:50:13;;;;;;;17.10;11.82;;;18.50;99.90;;;;;;5052058;28;20244;-57
2022/04/30 08:52:40;;;;;;;14.32;12.05;;;18.40;99.90;;;;;;5052100;28;20212;-59
2022/04/30 08:55:11;;;;;;;12.30;10.85;;;18.50;99.90;;;;;;5051867;28;20617;-59
2022/04/30 08:57:38;;;;;;;12.43;11.10;;;18.70;99.90;;;;;;5051798;28;20339;-61
2022/04/30 09:00:07;;;;;;;15.90;12.27;;;18.80;99.90;;;;;;5052051;28;20209;-60
2022/04/30 09:02:35;;;;;;;11.43;10.25;;;18.80;99.90;;;;;;5051881;28;20299;-61
2022/04/30 09:05:01;;;;;;;12.02;10.52;;;18.80;99.90;;;;;;5051725;28;20274;-60
2022/04/30 09:07:28;;;;;;;13.13;10.40;;;18.60;99.90;;;;;;5051866;28;20233;-60
2022/04/30 09:09:56;;;;;;;13.13;10.02;;;18.50;99.90;;;;;;5051502;28;20727;-58
2022/04/30 09:12:26;;;;;;;12.52;10.30;;;18.60;99.90;;;;;;5051982;28;20216;-59
2022/04/30 09:14:53;;;;;;;11.48;10.27;;;18.70;99.90;;;;;;5051999;28;20233;-60
2022/04/30 09:17:22;;;;;;;13.30;10.65;;;18.70;99.90;;;;;;5052021;28;20720;-57
2022/04/30 09:19:50;;;;;;;12.80;10.23;;;18.70;99.90;;;;;;5052899;28;20628;-57
2022/04/30 09:22:28;;;;;;;11.15;9.93;;;18.70;99.90;;;;;;5052305;28;20205;-57
2022/04/30 09:24:55;;;;;;;11.95;9.90;;;18.60;99.90;;;;;;5052405;28;20315;-57
2022/04/30 09:27:23;;;;;;;11.93;10.73;;;18.50;99.90;;;;;;5052292;28;20221;-57
2022/04/30 09:29:50;;;;;;;11.25;10.02;;;18.40;99.90;;;;;;5052121;28;20236;-57
2022/04/30 09:32:18;;;;;;;11.95;10.68;;;18.10;99.90;;;;;;5051984;28;20259;-57
2022/04/30 09:37:43;;;;;;;12.70;10.40;;;18.00;99.90;;;;;;5052128;28;20220;-58
2022/04/30 09:40:21;;;;;;;13.57;9.73;;;18.00;99.90;;;;;;5052018;28;20589;-57
2022/04/30 09:42:50;;;;;;;14.32;11.32;;;17.80;99.90;;;;;;5052136;28;20205;-57
2022/04/30 09:45:24;;;;;;;13.50;11.10;;;17.60;99.90;;;;;;5051826;28;20253;-57
2022/04/30 09:47:52;;;;;;;12.52;10.25;;;17.50;99.90;;;;;;5051947;28;20233;-57
2022/04/30 09:55:52;;;;;;;10.63;9.53;;;17.20;99.90;;;;;;5052023;28;20235;-57
2022/04/30 09:58:23;;;;;;;11.43;9.52;;;17.10;99.90;;;;;;5051818;28;20245;-57
2022/04/30 10:00:55;;;;;;;10.73;9.00;;;17.20;99.90;;;;;;5051773;28;20348;-60
2022/04/30 10:03:26;;;;;;;9.80;8.90;;;17.30;99.90;;;;;;5051779;28;20209;-57
2022/04/30 10:06:01;;;;;;;10.20;8.97;;;17.40;99.90;;;;;;5051657;28;20316;-55
2022/04/30 10:08:30;;;;;;;9.00;8.10;;;17.40;99.90;;;;;;5052128;28;20200;-58
2022/04/30 10:11:07;;;;;;;9.73;8.50;;;17.40;99.90;;;;;;5051608;28;20255;-57
2022/04/30 10:13:50;;;;;;;10.73;9.30;;;17.30;99.90;;;;;;5051572;28;20711;-56
2022/04/30 10:16:23;;;;;;;10.63;8.80;;;17.10;99.90;;;;;;5051755;28;20249;-56
2022/04/30 10:19:13;;;;;;;8.93;8.02;;;17.10;99.90;;;;;;5051845;28;20205;-56
2022/04/30 10:21:40;;;;;;;8.87;7.83;;;16.80;99.90;;;;;;5053191;28;20278;-56
2022/04/30 10:24:09;;;;;;;9.03;8.13;;;16.70;99.90;;;;;;5055525;28;20255;-56
2022/04/30 10:26:36;;;;;;;8.60;7.80;;;16.60;99.90;;;;;;5055531;28;20767;-56
2022/04/30 10:29:11;;;;;;;10.20;8.20;;;16.60;99.90;;;;;;5055415;28;20228;-56
2022/04/30 10:31:43;;;;;;;8.83;7.87;;;16.60;99.90;;;;;;5055312;28;20652;-56
2022/04/30 10:34:09;;;;;;;7.87;7.07;;;16.50;99.90;;;;;;5055749;28;20244;-56
2022/04/30 10:36:38;;;;;;;7.10;6.33;;;16.50;99.90;;;;;;5055538;28;20225;-56
2022/04/30 10:39:09;;;;;;;6.93;6.23;;;16.40;99.90;;;;;;5055654;28;20212;-57
2022/04/30 10:41:42;;;;;;;6.90;6.20;;;16.40;99.90;;;;;;5054786;28;20220;-56
2022/04/30 10:44:12;;;;;;;6.50;5.90;;;16.40;99.90;;;;;;5055209;28;20240;-56
2022/04/30 10:46:42;;;;;;;7.07;4.87;;;16.40;99.90;;;;;;5054694;28;20233;-56
2022/04/30 10:49:09;;;;;;;5.17;4.67;;;16.60;99.90;;;;;;5055183;28;20309;-56
2022/04/30 10:51:41;;;;;;;4.70;4.30;;;16.70;99.90;;;;;;5054721;28;20666;-56
2022/04/30 10:54:10;;;;;;;5.27;4.77;;;16.80;99.90;;;;;;5054600;28;20266;-57
2022/04/30 10:56:38;;;;;;;4.40;4.00;;;16.90;99.90;;;;;;5054411;28;20245;-57
2022/04/30 10:59:05;;;;;;;4.03;3.37;;;16.90;99.90;;;;;;5054689;28;20267;-57
2022/04/30 11:01:34;;;;;;;4.30;3.40;;;16.90;99.90;;;;;;5054518;28;20635;-57
2022/04/30 11:04:01;;;;;;;4.80;4.30;;;16.80;99.90;;;;;;5054509;28;20217;-57
2022/04/30 11:06:31;;;;;;;4.07;3.47;;;16.80;99.90;;;;;;5054213;28;20233;-56
2022/04/30 11:08:59;;;;;;;13.13;5.67;;;16.70;99.90;;;;;;5054707;28;20507;-57
2022/04/30 11:11:26;;;;;;;6.40;4.33;;;16.60;99.90;;;;;;5054037;28;20210;-58
2022/04/30 11:14:11;;;;;;;4.10;3.70;;;16.60;99.90;;;;;;5054438;28;20228;-57
2022/04/30 11:16:42;;;;;;;4.13;3.63;;;16.60;99.90;;;;;;5054624;28;20222;-56
2022/04/30 11:19:11;;;;;;;3.90;3.53;;;16.50;99.90;;;;;;5054095;28;20300;-56
2022/04/30 11:21:39;;;;;;;4.30;3.50;;;16.50;99.90;;;;;;5053906;28;20205;-57
2022/04/30 11:24:08;;;;;;;6.17;4.30;;;16.40;99.90;;;;;;5053976;28;20681;-56
2022/04/30 11:26:37;;;;;;;4.40;4.00;;;16.30;99.90;;;;;;5053695;28;20709;-57
2022/04/30 11:29:08;;;;;;;5.43;3.73;;;16.40;99.90;;;;;;5053836;28;20205;-56
2022/04/30 11:31:34;;;;;;;4.90;4.40;;;16.50;99.90;;;;;;5053943;28;20209;-57
2022/04/30 11:34:09;;;;;;;4.57;4.17;;;16.50;99.90;;;;;;5052878;28;20205;-56
2022/04/30 11:36:40;;;;;;;5.10;4.60;;;16.60;99.90;;;;;;5054133;28;20255;-55
2022/04/30 11:39:06;;;;;;;6.90;4.90;;;16.80;99.90;;;;;;5053666;28;20244;-55
2022/04/30 11:41:38;;;;;;;5.40;4.90;;;16.80;99.90;;;;;;5053639;28;20255;-58
2022/04/30 11:44:06;;;;;;;6.83;5.20;;;16.70;99.90;;;;;;5054117;28;20646;-57
2022/04/30 11:46:32;;;;;;;6.70;5.23;;;16.80;99.90;;;;;;5053614;28;20637;-57
2022/04/30 11:48:59;;;;;;;7.60;6.03;;;17.00;99.90;;;;;;5053817;28;20213;-57
2022/04/30 11:51:29;;;;;;;5.57;4.93;;;17.20;99.90;;;;;;5053458;28;20279;-62
2022/04/30 11:53:56;;;;;;;4.85;4.45;;;17.40;99.90;;;;;;5053885;28;20586;-58
2022/04/30 11:56:23;;;;;;;5.10;4.60;;;17.60;99.90;;;;;;5053401;28;20256;-58
2022/04/30 11:58:49;;;;;;;4.72;4.32;;;17.90;99.90;;;;;;5054218;28;20259;-59
2022/04/30 12:01:23;;;;;;;5.20;4.70;;;18.10;99.90;;;;;;5054193;28;20202;-57
2022/04/30 12:03:59;;;;;;;4.72;4.10;;;18.40;99.90;;;;;;5053684;28;20242;-58
2022/04/30 12:06:27;;;;;;;5.07;4.53;;;18.50;99.90;;;;;;5053008;28;20229;-58
2022/04/30 12:08:55;;;;;;;4.40;4.00;;;18.40;99.90;;;;;;5053159;28;20208;-58
2022/04/30 12:11:22;;;;;;;4.30;3.90;;;17.90;99.90;;;;;;5053042;28;20209;-58
2022/04/30 12:14:00;;;;;;;10.40;7.87;;;17.40;99.90;;;;;;5053019;28;20206;-57
2022/04/30 12:16:34;;;;;;;4.72;4.03;;;17.20;99.90;;;;;;5052558;28;20257;-58
2022/04/30 12:24:44;;;;;;;3.50;3.00;;;17.50;99.90;;;;;;5052873;28;20699;-57
2022/04/30 12:27:18;;;;;;;3.33;2.90;;;17.70;99.90;;;;;;5052659;28;20225;-58
2022/04/30 12:29:46;;;;;;;3.33;3.05;;;17.80;99.90;;;;;;5052565;28;20637;-57
2022/04/30 12:32:17;;;;;;;3.20;2.65;;;17.80;99.90;;;;;;5052521;28;20241;-57
2022/04/30 12:34:45;;;;;;;3.05;2.75;;;18.00;99.90;;;;;;5052506;28;20301;-57
2022/04/30 12:37:12;;;;;;;2.55;2.30;;;18.20;99.90;;;;;;5052566;28;20257;-57
2022/04/30 12:39:41;;;;;;;2.60;2.40;;;18.30;99.90;;;;;;5050328;28;20209;-59
2022/04/30 12:42:11;;;;;;;2.50;2.30;;;18.00;99.90;;;;;;5051543;28;20209;-60
2022/04/30 12:44:37;;;;;;;2.40;2.10;;;18.00;99.90;;;;;;5052371;28;20371;-56
2022/04/30 12:47:05;;;;;;;2.45;2.25;;;17.90;99.90;;;;;;5052307;28;20233;-55
2022/04/30 12:49:32;;;;;;;2.90;2.70;;;17.70;99.90;;;;;;5051997;28;20237;-56
2022/04/30 12:51:58;;;;;;;2.50;2.30;;;17.40;99.90;;;;;;5051811;28;20209;-55
2022/04/30 12:54:25;;;;;;;2.30;2.10;;;17.00;99.90;;;;;;5052125;28;20209;-55
2022/04/30 12:56:55;;;;;;;3.28;2.50;;;16.40;99.90;;;;;;5052058;28;20244;-55
2022/04/30 12:59:22;;;;;;;3.00;2.67;;;16.10;99.90;;;;;;5051965;28;20697;-55
2022/04/30 13:01:49;;;;;;;3.53;3.23;;;15.90;99.90;;;;;;5052312;28;20205;-55
2022/04/30 13:04:17;;;;;;;3.63;3.33;;;15.90;99.90;;;;;;5052126;28;20688;-55
2022/04/30 13:06:44;;;;;;;3.30;3.07;;;15.80;99.90;;;;;;5051644;28;20291;-56
2022/04/30 13:14:40;;;;;;;3.60;3.30;;;15.60;99.90;;;;;;5052472;28;20647;-56
2022/04/30 13:17:07;;;;;;;3.57;3.27;;;15.60;99.90;;;;;;5052048;28;20225;-56
2022/04/30 13:19:33;;;;;;;3.83;3.50;;;15.70;99.90;;;;;;5051638;28;20210;-56
2022/04/30 13:22:01;;;;;;;4.23;3.83;;;15.80;99.90;;;;;;5051673;28;20209;-56
2022/04/30 13:24:29;;;;;;;5.47;3.87;;;15.70;99.90;;;;;;5051833;28;20210;-56
2022/04/30 13:26:58;;;;;;;6.30;4.07;;;15.60;99.90;;;;;;5052004;28;20324;-56